Latest Weather Observations for Territory Grape Farm

IDD60801

Issued at 10:01 pm CST Sunday 24 July 2016 (issued every 30 minutes, with the page automatically refreshed every 10 minutes)

About weather observations | Map of weather stations | Latest weather observations for NT | Other Formats
Station Details ID: 015643 Name: TERRITORY GRAPE FARM Lat: -22.45 Lon: 133.64 Height: 565.6 m
Data from the previous 72 hours. | See also: Recent months at Territory Grape Farm
Date/Time
CST
Temp
°C
App
Temp
°C
Dew
Point
°C
Rel
Hum
%
Delta-T
°C
Wind Press
QNH
hPa
Press
MSL
hPa
Rain since
9am
mm
Dir  Spd
km/h
Gust
km/h
Spd
kts
Gust
kts
24/10:00pm 19.4 14.5 2.3 32 8.1 SSE 17 24 9 13 1020.9 1020.1 0.0
24/09:30pm 20.0 14.9 2.8 32 8.3 S 19 26 10 14 1020.9 1020.1 0.0
24/09:00pm 20.1 16.9 3.3 33 8.1 S 9 13 5 7 1020.3 1019.5 0.0
24/08:30pm 20.1 17.0 3.8 34 8.0 SSE 9 11 5 6 1020.1 1019.3 0.0
24/08:00pm 20.4 16.8 3.2 32 8.4 SSE 11 13 6 7 1019.6 1018.9 0.0
24/07:30pm 21.4 17.2 3.6 31 8.8 SSE 15 22 8 12 1019.2 1018.4 0.0
24/07:00pm 22.3 18.1 3.9 30 9.2 S 15 20 8 11 1018.9 1018.1 0.0
24/06:30pm 23.1 19.3 4.1 29 9.6 S 13 20 7 11 1018.4 1017.6 0.0
24/06:00pm 25.2 22.5 5.4 28 10.3 SSW 9 15 5 8 1017.9 1017.2 0.0
24/05:30pm 26.2 23.8 5.2 26 11.0 S 7 15 4 8 1017.6 1016.8 0.0
24/05:00pm 27.2 24.9 5.5 25 11.5 S 7 13 4 7 1017.3 1016.5 0.0
24/04:30pm 27.0 24.6 5.3 25 11.4 SSW 7 15 4 8 1017.0 1016.2 0.0
24/04:00pm 27.1 24.7 5.4 25 11.5 WNW 7 19 4 10 1016.9 1016.1 0.0
24/03:30pm 26.4 24.2 5.4 26 11.0 S 6 13 3 7 1017.0 1016.2 0.0
24/03:00pm 26.7 24.5 5.1 25 11.3 WSW 6 11 3 6 1017.1 1016.3 0.0
24/02:30pm 26.4 24.1 4.8 25 11.2 S 6 11 3 6 1017.3 1016.5 0.0
24/02:00pm 26.0 24.1 5.0 26 11.0 NE 4 15 2 8 1017.7 1016.9 0.0
24/01:30pm 25.4 22.8 4.0 25 10.9 SSE 7 15 4 8 1018.3 1017.5 0.0
24/01:00pm 24.6 21.5 3.8 26 10.5 WSW 9 17 5 9 1018.8 1018.0 0.0
24/12:30pm 24.1 21.6 4.0 27 10.2 SSW 6 13 3 7 1019.3 1018.5 0.0
24/12:00pm 23.1 20.9 3.1 27 9.9 S 4 9 2 5 1019.7 1019.0 0.0
24/11:30am 22.4 20.1 3.0 28 9.5 SE 4 9 2 5 1020.2 1019.4 0.0
24/11:00am 21.5 19.3 3.2 30 9.0 SE 4 7 2 4 1020.5 1019.7 0.0
24/10:30am 20.6 17.9 2.9 31 8.5 NE 6 9 3 5 1020.7 1019.9 0.0
24/10:00am 19.6 16.9 2.9 33 8.0 NE 6 9 3 5 1020.8 1020.0 0.0
24/09:30am 17.8 14.5 2.2 35 7.3 ENE 9 15 5 8 1020.7 1019.9 0.0
24/09:00am 16.5 13.2 2.5 39 6.5 ENE 9 13 5 7 1020.3 1019.5 0.0
24/08:30am 14.1 11.2 2.7 46 5.2 SE 7 11 4 6 1020.2 1019.4 0.0
24/08:00am 11.4 9.1 2.7 55 3.9 S 4 6 2 3 1019.8 1019.1 0.0
24/07:30am 9.1 6.7 2.2 62 3.0 SSW 4 6 2 3 1019.5 1018.8 0.0
24/07:00am 8.9 6.4 1.6 60 3.1 S 4 6 2 3 1019.2 1018.4 0.0
24/06:30am 9.8 6.4 1.9 58 3.4 SSW 9 13 5 7 1019.2 1018.4 0.0
24/06:00am 10.1 7.1 2.0 57 3.5 SSW 7 9 4 5 1018.5 1017.7 0.0
24/05:30am 10.0 7.1 2.4 59 3.3 SW 7 9 4 5 1018.4 1017.6 0.0
24/05:00am 9.3 7.4 2.6 63 2.9 S 2 4 1 2 1017.9 1017.2 0.0
24/04:30am 9.7 7.4 2.8 62 3.0 SSE 4 4 2 2 1017.8 1017.0 0.0
24/04:00am 10.9 8.2 2.5 56 3.7 S 6 9 3 5 1017.7 1016.9 0.0
24/03:30am 11.1 7.9 2.9 57 3.7 SSW 9 15 5 8 1017.8 1017.0 0.0
24/03:00am 10.5 8.3 3.3 61 3.2 SW 4 4 2 2 1017.5 1016.7 0.0
24/02:30am 10.7 8.9 3.3 60 3.3 SW 2 4 1 2 1017.6 1016.8 0.0
24/02:00am 11.1 9.2 2.7 56 3.8 SW 2 6 1 3 1017.6 1016.8 0.0
24/01:30am 12.3 9.7 3.0 53 4.2 SW 6 7 3 4 1017.9 1017.2 0.0
24/01:00am 12.1 9.9 3.3 55 4.0 SE 4 4 2 2 1017.9 1017.2 0.0
24/12:30am 12.9 10.3 3.0 51 4.5 ESE 6 6 3 3 1017.9 1017.2 0.0
24/12:00am 12.9 10.4 3.6 53 4.3 ESE 6 7 3 4 1018.0 1017.3 0.0
 
Date/Time
CST
Temp
°C
App
Temp
°C
Dew
Point
°C
Rel
Hum
%
Delta-T
°C
Wind Press
QNH
hPa
Press
MSL
hPa
Rain since
9am
mm
Dir  Spd
km/h
Gust
km/h
Spd
kts
Gust
kts
23/11:30pm 13.3 10.5 3.4 51 4.6 E 7 9 4 5 1018.2 1017.4 0.0
23/11:00pm 13.5 10.7 3.3 50 4.7 E 7 7 4 4 1018.0 1017.3 0.0
23/10:30pm 14.2 11.5 3.9 50 4.8 E 7 9 4 5 1018.3 1017.5 0.0
23/10:00pm 15.1 12.3 3.3 45 5.5 E 7 9 4 5 1018.4 1017.6 0.0
23/09:30pm 16.3 13.2 3.4 42 6.1 ENE 9 11 5 6 1018.3 1017.5 0.0
23/09:00pm 17.4 13.9 3.3 39 6.7 ENE 11 13 6 7 1018.2 1017.4 0.0
23/08:30pm 18.1 14.6 3.6 38 7.0 ENE 11 13 6 7 1017.9 1017.2 0.0
23/08:00pm 19.3 15.6 4.3 37 7.4 ENE 13 19 7 10 1017.7 1016.9 0.0
23/07:30pm 19.4 16.1 4.7 38 7.3 ENE 11 13 6 7 1017.5 1016.7 0.0
23/07:00pm 19.7 16.9 5.0 38 7.4 ENE 9 11 5 6 1017.3 1016.5 0.0
23/06:30pm 20.8 18.2 4.4 34 8.2 NE 7 9 4 5 1017.0 1016.2 0.0
23/06:00pm 23.4 20.9 4.9 30 9.5 ENE 7 13 4 7 1016.9 1016.1 0.0
23/05:30pm 24.9 21.6 4.6 27 10.4 NE 11 15 6 8 1016.6 1015.8 0.0
23/05:00pm 25.5 23.2 4.6 26 10.8 ENE 6 13 3 7 1016.5 1015.7 0.0
23/04:30pm 25.6 23.1 4.7 26 10.8 ESE 7 15 4 8 1016.4 1015.5 0.0
23/04:00pm 25.8 22.6 4.9 26 10.9 E 11 20 6 11 1016.6 1015.8 0.0
23/03:30pm 26.1 23.3 5.1 26 11.0 E 9 15 5 8 1016.8 1016.0 0.0
23/03:00pm 25.4 21.7 4.5 26 10.8 E 13 20 7 11 1017.2 1016.4 0.0
23/02:30pm 25.2 21.9 4.3 26 10.7 SE 11 24 6 13 1017.4 1016.6 0.0
23/02:00pm 24.9 21.1 4.1 26 10.6 E 13 20 7 11 1017.9 1017.2 0.0
23/01:30pm 24.3 20.5 4.1 27 10.2 ESE 13 20 7 11 1018.4 1017.6 0.0
23/01:00pm 23.6 20.2 4.0 28 9.9 SE 11 22 6 12 1018.9 1018.1 0.0
23/12:30pm 23.9 20.2 4.3 28 9.9 ESE 13 24 7 13 1019.3 1018.5 0.0
23/12:00pm 22.8 18.2 3.9 29 9.5 ESE 17 26 9 14 1019.7 1019.0 0.0
23/11:30am 22.6 18.5 4.2 30 9.2 SSE 15 26 8 14 1020.1 1019.3 0.0
23/11:00am 21.7 16.8 3.9 31 8.9 SE 19 28 10 15 1020.3 1019.5 0.0
23/10:30am 21.3 16.5 4.8 34 8.3 SE 19 26 10 14 1020.3 1019.5 0.0
23/10:00am 20.2 15.4 4.7 36 7.8 SE 19 26 10 14 1019.9 1019.2 0.0
23/09:30am 19.2 14.4 5.6 41 6.9 SSE 20 26 11 14 1019.7 1019.0 0.0
23/09:00am 18.4 14.0 7.2 48 5.8 SSE 20 26 11 14 1019.2 1018.4 0.0
23/08:30am 16.8 13.5 8.0 56 4.6 SSE 15 20 8 11 1018.7 1017.9 0.0
23/08:00am 14.5 12.7 8.0 65 3.3 S 7 9 4 5 1018.5 1017.7 0.0
23/07:30am 13.5 11.7 7.9 69 2.8 S 7 9 4 5 1018.4 1017.6 0.0
23/07:00am 14.4 11.9 8.1 66 3.2 SSE 11 15 6 8 1017.7 1016.9 0.0
23/06:30am 15.1 12.6 8.3 64 3.5 S 11 15 6 8 1017.6 1016.8 0.0
23/06:00am 14.5 12.1 8.5 67 3.1 S 11 15 6 8 1017.6 1016.8 0.0
23/05:30am 13.6 11.7 7.6 67 3.0 SSE 7 9 4 5 1017.2 1016.4 0.0
23/05:00am 14.8 12.6 7.8 63 3.6 S 9 11 5 6 1017.1 1016.3 0.0
23/04:30am 15.8 13.3 8.1 60 4.0 S 11 17 6 9 1016.9 1016.1 0.0
23/04:00am 15.5 12.9 7.8 60 4.0 SSW 11 15 6 8 1016.9 1016.1 0.0
23/03:30am 15.1 12.7 6.9 58 4.1 S 9 11 5 6 1016.9 1016.1 0.0
23/03:00am 16.4 14.5 7.6 56 4.5 SSW 7 11 4 6 1017.0 1016.2 0.0
23/02:30am 15.6 13.2 6.9 56 4.4 S 9 13 5 7 1017.0 1016.2 0.0
23/02:00am 15.8 13.2 6.3 53 4.8 SSW 9 15 5 8 1017.1 1016.3 0.0
23/01:30am 15.4 12.9 6.4 55 4.5 S 9 13 5 7 1017.2 1016.4 0.0
23/01:00am 15.7 13.3 7.0 56 4.4 S 9 15 5 8 1017.2 1016.4 0.0
23/12:30am 14.5 12.9 6.3 58 4.1 SW 4 4 2 2 1017.0 1016.2 0.0
23/12:00am 15.9 14.1 7.1 56 4.5 S 6 13 3 7 1017.2 1016.4 0.0
 
Date/Time
CST
Temp
°C
App
Temp
°C
Dew
Point
°C
Rel
Hum
%
Delta-T
°C
Wind Press
QNH
hPa
Press
MSL
hPa
Rain since
9am
mm
Dir  Spd
km/h
Gust
km/h
Spd
kts
Gust
kts
22/11:30pm 15.7 13.9 7.2 57 4.3 S 6 9 3 5 1017.3 1016.5 0.0
22/11:00pm 16.9 15.1 7.0 52 5.1 WSW 6 6 3 3 1017.2 1016.4 0.0
22/10:30pm 16.6 14.6 7.0 53 4.9 WSW 7 9 4 5 1017.1 1016.3 0.0
22/10:00pm 18.0 16.2 7.1 49 5.6 WSW 6 7 3 4 1016.9 1016.1 0.0
22/09:30pm 17.2 15.4 7.0 51 5.2 SW 6 11 3 6 1016.9 1016.1 0.0
22/09:00pm 18.1 16.4 7.5 50 5.5 SW 6 9 3 5 1016.9 1016.1 0.0
22/08:30pm 18.1 16.7 7.2 49 5.6 SSW 4 6 2 3 1016.7 1015.9 0.0
22/08:00pm 19.2 17.7 7.0 45 6.3 SSW 4 6 2 3 1016.3 1015.4 0.0
22/07:30pm 22.6 20.6 7.2 37 8.2 SW 7 7 4 4 1015.9 1015.1 0.0
22/07:00pm 23.0 21.1 6.7 35 8.6 SW 6 6 3 3 1015.7 1014.9 0.0
22/06:30pm 25.1 23.2 6.8 31 9.8 SW 6 6 3 3 1015.4 1014.6 0.0
22/06:00pm 27.3 25.4 6.7 27 11.1 SW 6 7 3 4 1015.2 1014.4 0.0
22/05:30pm 29.3 27.5 7.2 25 12.2 WNW 6 9 3 5 1014.9 1014.1 0.0
22/05:00pm 29.6 27.2 6.9 24 12.5 W 9 15 5 8 1015.0 1014.2 0.0
22/04:30pm 29.5 27.1 6.8 24 12.5 SW 9 15 5 8 1015.2 1014.4 0.0
22/04:00pm 29.9 27.9 7.2 24 12.6 WSW 7 19 4 10 1015.1 1014.3 0.0
22/03:30pm 29.9 27.2 7.2 24 12.6 W 11 22 6 12 1015.1 1014.3 0.0
22/03:00pm 29.8 27.4 7.1 24 12.5 WSW 9 19 5 10 1015.2 1014.4 0.0
22/02:30pm 29.5 26.7 6.8 24 12.4 SW 11 19 6 10 1015.4 1014.6 0.0
22/02:00pm 29.6 26.8 6.9 24 12.5 NW 11 17 6 9 1015.9 1015.1 0.0
22/01:30pm 28.9 26.1 6.9 25 12.0 NNW 11 20 6 11 1016.6 1015.8 0.0
22/01:00pm 29.0 - 7.6 26 11.9 - - - - - 1016.9 - -
22/12:30pm 28.0 - 7.8 28 11.2 - - - - - 1017.5 1016.7 -
22/12:00pm 27.4 24.8 7.8 29 10.8 NW 11 19 6 10 1017.9 1017.2 0.0
22/11:30am 27.0 - 8.0 30 10.5 - - - - - 1018.4 1017.6 -
22/11:00am 26.2 - 7.7 31 10.1 - - - - - 1018.8 - -
22/10:30am 25.2 - 7.8 33 9.5 - - - - - 1018.9 1018.1 -
22/10:00am 23.2 - 8.1 38 8.2 - - - - - 1019.0 - -
22/09:30am 20.9 19.7 8.2 44 6.8 NW 4 6 2 3 1019.0 1018.2 0.0
22/09:00am 18.1 17.2 7.8 51 5.4 WNW 2 4 1 2 1018.9 1018.1 0.0
22/08:30am 15.0 14.0 7.5 61 3.8 WNW 2 2 1 1 1018.7 1017.9 0.0
22/08:00am 12.0 10.9 6.7 70 2.6 W 2 2 1 1 1018.5 1017.7 0.0
22/07:30am 9.2 6.8 5.4 77 1.8 N 7 7 4 4 1018.4 1017.6 0.0
22/07:00am 9.6 7.7 5.0 73 2.1 N 4 6 2 3 1018.2 1017.4 0.0
22/06:30am 9.4 - 5.0 74 2.0 - - - - - 1017.9 1017.2 -
22/06:00am 9.2 7.3 5.0 75 1.9 N 4 6 2 3 1017.6 1016.8 0.0
22/05:30am 9.9 7.7 5.1 72 2.2 NNW 6 7 3 4 1017.3 1016.5 0.0
22/05:00am 10.3 8.1 5.1 70 2.4 NNW 6 6 3 3 1017.3 1016.5 0.0
22/04:30am 10.2 8.0 5.4 72 2.3 NNW 6 6 3 3 1017.2 1016.4 0.0
22/04:00am 10.8 8.5 5.6 70 2.5 N 7 7 4 4 1017.2 1016.4 0.0
22/03:30am 11.3 9.1 6.0 70 2.6 NNW 7 9 4 5 1017.2 1016.4 0.0
22/03:00am 10.1 - 5.7 74 2.1 - - - - - 1017.2 1016.4 0.0
22/02:30am 10.7 - 6.1 73 2.2 - - - - - 1017.3 1016.5 -
22/02:00am 10.9 - 5.9 71 2.4 - - - - - 1017.5 - -
22/01:30am 11.9 - 5.5 65 3.1 - - - - - 1017.7 1016.9 -
22/01:00am 13.6 - 6.5 62 3.5 - - - - - 1017.8 - -
22/12:30am 12.6 - 6.6 67 3.0 - - - - - 1017.7 1016.9 -
22/12:00am 12.7 - 6.7 67 3.0 - - - - - 1017.7 1016.9 -
 
Date/Time
CST
Temp
°C
App
Temp
°C
Dew
Point
°C
Rel
Hum
%
Delta-T
°C
Wind Press
QNH
hPa
Press
MSL
hPa
Rain since
9am
mm
Dir  Spd
km/h
Gust
km/h
Spd
kts
Gust
kts
21/11:30pm 12.8 - 6.8 67 3.0 - - - - - 1017.8 1017.0 -
21/11:00pm 13.4 - 6.7 64 3.3 - - - - - 1017.9 - -
21/10:30pm 13.6 11.9 7.4 66 3.1 NE 6 6 3 3 1017.7 1016.9 0.0

Other Formats:

Comma delimited format used in spreadsheet applications
http://www.bom.gov.au/fwo/IDD60801/IDD60801.94328.axf

JavaScript Object Notation format (JSON) in row-major order
http://www.bom.gov.au/fwo/IDD60801/IDD60801.94328.json